sensor_id;sensor_type;location;lat;lon;timestamp;P1;durP1;ratioP1;P2;durP2;ratioP2
14019;SDS011;7085;51.428;6.796;2023-02-22T06:02:33;31.70;;;12.07;;
14019;SDS011;7085;51.428;6.796;2023-02-22T06:05:00;44.87;;;13.43;;
14019;SDS011;7085;51.428;6.796;2023-02-22T06:07:27;45.63;;;14.47;;
14019;SDS011;7085;51.428;6.796;2023-02-22T06:09:54;61.17;;;13.57;;
14019;SDS011;7085;51.428;6.796;2023-02-22T06:12:21;38.77;;;14.57;;
14019;SDS011;7085;51.428;6.796;2023-02-22T06:14:48;38.43;;;13.27;;
14019;SDS011;7085;51.428;6.796;2023-02-22T06:17:15;48.87;;;14.17;;
14019;SDS011;7085;51.428;6.796;2023-02-22T06:19:44;40.90;;;14.20;;
14019;SDS011;7085;51.428;6.796;2023-02-22T06:22:14;34.97;;;14.40;;
14019;SDS011;7085;51.428;6.796;2023-02-22T06:24:42;26.73;;;13.77;;
14019;SDS011;7085;51.428;6.796;2023-02-22T06:27:09;50.17;;;18.23;;
14019;SDS011;7085;51.428;6.796;2023-02-22T06:29:36;42.13;;;14.67;;
14019;SDS011;7085;51.428;6.796;2023-02-22T06:32:03;62.10;;;13.60;;
14019;SDS011;7085;51.428;6.796;2023-02-22T06:34:30;38.63;;;12.70;;
14019;SDS011;7085;51.428;6.796;2023-02-22T06:36:58;37.90;;;14.10;;
14019;SDS011;7085;51.428;6.796;2023-02-22T06:39:25;20.30;;;13.37;;
14019;SDS011;7085;51.428;6.796;2023-02-22T06:41:52;27.60;;;13.30;;
14019;SDS011;7085;51.428;6.796;2023-02-22T06:44:21;26.17;;;12.30;;
14019;SDS011;7085;51.428;6.796;2023-02-22T06:46:48;28.63;;;13.57;;
14019;SDS011;7085;51.428;6.796;2023-02-22T06:49:16;27.57;;;12.57;;
14019;SDS011;7085;51.428;6.796;2023-02-22T06:51:43;23.73;;;13.53;;
14019;SDS011;7085;51.428;6.796;2023-02-22T06:54:12;23.10;;;13.77;;
14019;SDS011;7085;51.428;6.796;2023-02-22T06:56:39;18.07;;;12.57;;
14019;SDS011;7085;51.428;6.796;2023-02-22T06:59:06;20.37;;;12.73;;
14019;SDS011;7085;51.428;6.796;2023-02-22T07:01:34;23.23;;;13.67;;
14019;SDS011;7085;51.428;6.796;2023-02-22T07:04:01;19.23;;;11.87;;
14019;SDS011;7085;51.428;6.796;2023-02-22T07:06:28;21.20;;;11.93;;
14019;SDS011;7085;51.428;6.796;2023-02-22T07:08:55;19.00;;;11.10;;
14019;SDS011;7085;51.428;6.796;2023-02-22T07:11:23;19.17;;;12.13;;
14019;SDS011;7085;51.428;6.796;2023-02-22T07:13:50;20.80;;;11.80;;
14019;SDS011;7085;51.428;6.796;2023-02-22T07:16:19;17.63;;;12.15;;
14019;SDS011;7085;51.428;6.796;2023-02-22T07:18:46;18.95;;;12.02;;
14019;SDS011;7085;51.428;6.796;2023-02-22T07:21:13;21.17;;;14.13;;
14019;SDS011;7085;51.428;6.796;2023-02-22T07:23:47;18.33;;;11.80;;
14019;SDS011;7085;51.428;6.796;2023-02-22T07:26:15;21.70;;;11.90;;
14019;SDS011;7085;51.428;6.796;2023-02-22T07:28:44;17.70;;;10.68;;
14019;SDS011;7085;51.428;6.796;2023-02-22T07:31:11;15.33;;;10.83;;
14019;SDS011;7085;51.428;6.796;2023-02-22T07:33:38;14.75;;;10.65;;
14019;SDS011;7085;51.428;6.796;2023-02-22T07:36:05;17.57;;;11.47;;
14019;SDS011;7085;51.428;6.796;2023-02-22T07:38:32;19.90;;;11.40;;
14019;SDS011;7085;51.428;6.796;2023-02-22T07:40:59;15.03;;;11.30;;
14019;SDS011;7085;51.428;6.796;2023-02-22T07:43:27;17.08;;;11.35;;
14019;SDS011;7085;51.428;6.796;2023-02-22T07:45:57;17.33;;;11.68;;
14019;SDS011;7085;51.428;6.796;2023-02-22T07:48:27;14.13;;;10.48;;
14019;SDS011;7085;51.428;6.796;2023-02-22T07:50:54;16.25;;;11.00;;
14019;SDS011;7085;51.428;6.796;2023-02-22T07:53:22;14.80;;;10.63;;
14019;SDS011;7085;51.428;6.796;2023-02-22T07:55:49;22.55;;;11.10;;
14019;SDS011;7085;51.428;6.796;2023-02-22T07:58:18;14.63;;;10.77;;
14019;SDS011;7085;51.428;6.796;2023-02-22T08:00:45;16.23;;;10.83;;
14019;SDS011;7085;51.428;6.796;2023-02-22T08:03:15;17.42;;;10.18;;
14019;SDS011;7085;51.428;6.796;2023-02-22T08:05:44;15.43;;;10.77;;
14019;SDS011;7085;51.428;6.796;2023-02-22T08:08:11;13.88;;;10.07;;
14019;SDS011;7085;51.428;6.796;2023-02-22T08:10:39;14.43;;;10.65;;
14019;SDS011;7085;51.428;6.796;2023-02-22T08:13:07;18.88;;;10.55;;
14019;SDS011;7085;51.428;6.796;2023-02-22T08:15:35;15.35;;;11.30;;
14019;SDS011;7085;51.428;6.796;2023-02-22T08:18:03;16.60;;;13.02;;
14019;SDS011;7085;51.428;6.796;2023-02-22T08:20:34;11.93;;;9.80;;
14019;SDS011;7085;51.428;6.796;2023-02-22T08:23:02;15.30;;;11.32;;
14019;SDS011;7085;51.428;6.796;2023-02-22T08:25:29;14.02;;;10.65;;
14019;SDS011;7085;51.428;6.796;2023-02-22T08:27:57;14.60;;;10.13;;
14019;SDS011;7085;51.428;6.796;2023-02-22T08:30:25;12.55;;;8.95;;
14019;SDS011;7085;51.428;6.796;2023-02-22T08:32:52;13.93;;;10.38;;
14019;SDS011;7085;51.428;6.796;2023-02-22T08:35:20;12.70;;;9.65;;
14019;SDS011;7085;51.428;6.796;2023-02-22T08:37:49;13.60;;;9.52;;
14019;SDS011;7085;51.428;6.796;2023-02-22T08:40:17;12.68;;;9.23;;
14019;SDS011;7085;51.428;6.796;2023-02-22T08:42:45;16.67;;;9.68;;
14019;SDS011;7085;51.428;6.796;2023-02-22T08:45:12;12.88;;;9.18;;
14019;SDS011;7085;51.428;6.796;2023-02-22T08:47:39;12.38;;;9.68;;
14019;SDS011;7085;51.428;6.796;2023-02-22T08:50:07;14.15;;;9.75;;
14019;SDS011;7085;51.428;6.796;2023-02-22T08:52:35;23.58;;;11.60;;
14019;SDS011;7085;51.428;6.796;2023-02-22T08:55:03;17.65;;;10.07;;
14019;SDS011;7085;51.428;6.796;2023-02-22T08:57:31;12.73;;;10.57;;
14019;SDS011;7085;51.428;6.796;2023-02-22T08:59:58;13.68;;;8.60;;
14019;SDS011;7085;51.428;6.796;2023-02-22T09:02:25;12.38;;;8.73;;
14019;SDS011;7085;51.428;6.796;2023-02-22T09:04:52;15.30;;;10.02;;
14019;SDS011;7085;51.428;6.796;2023-02-22T09:07:19;12.02;;;9.38;;
14019;SDS011;7085;51.428;6.796;2023-02-22T09:09:46;11.57;;;8.85;;
14019;SDS011;7085;51.428;6.796;2023-02-22T09:12:14;11.57;;;9.32;;
14019;SDS011;7085;51.428;6.796;2023-02-22T09:14:42;12.82;;;9.50;;
14019;SDS011;7085;51.428;6.796;2023-02-22T09:17:09;12.80;;;8.80;;
14019;SDS011;7085;51.428;6.796;2023-02-22T09:19:36;14.35;;;8.93;;
14019;SDS011;7085;51.428;6.796;2023-02-22T09:22:03;11.65;;;8.55;;
14019;SDS011;7085;51.428;6.796;2023-02-22T09:24:30;12.40;;;10.50;;
14019;SDS011;7085;51.428;6.796;2023-02-22T09:26:57;13.70;;;9.40;;
14019;SDS011;7085;51.428;6.796;2023-02-22T09:29:26;17.40;;;9.68;;
14019;SDS011;7085;51.428;6.796;2023-02-22T09:31:54;14.25;;;10.02;;
14019;SDS011;7085;51.428;6.796;2023-02-22T09:34:22;15.45;;;10.02;;
14019;SDS011;7085;51.428;6.796;2023-02-22T09:36:53;11.63;;;9.05;;
14019;SDS011;7085;51.428;6.796;2023-02-22T09:39:21;12.88;;;9.55;;
14019;SDS011;7085;51.428;6.796;2023-02-22T09:41:50;13.60;;;9.70;;
14019;SDS011;7085;51.428;6.796;2023-02-22T09:44:21;13.68;;;9.38;;
14019;SDS011;7085;51.428;6.796;2023-02-22T09:46:52;14.32;;;9.68;;
14019;SDS011;7085;51.428;6.796;2023-02-22T09:49:20;11.90;;;9.43;;
14019;SDS011;7085;51.428;6.796;2023-02-22T09:51:51;13.10;;;9.68;;
14019;SDS011;7085;51.428;6.796;2023-02-22T09:54:20;14.77;;;9.80;;
14019;SDS011;7085;51.428;6.796;2023-02-22T09:56:49;11.98;;;8.77;;
14019;SDS011;7085;51.428;6.796;2023-02-22T09:59:19;14.02;;;9.52;;
14019;SDS011;7085;51.428;6.796;2023-02-22T10:01:48;11.93;;;9.05;;
14019;SDS011;7085;51.428;6.796;2023-02-22T10:04:23;11.32;;;9.25;;
14019;SDS011;7085;51.428;6.796;2023-02-22T10:07:02;12.10;;;9.35;;
14019;SDS011;7085;51.428;6.796;2023-02-22T10:09:32;14.00;;;9.23;;
14019;SDS011;7085;51.428;6.796;2023-02-22T10:12:02;11.18;;;8.52;;
14019;SDS011;7085;51.428;6.796;2023-02-22T10:14:40;14.73;;;10.02;;
14019;SDS011;7085;51.428;6.796;2023-02-22T10:17:11;11.15;;;8.63;;
14019;SDS011;7085;51.428;6.796;2023-02-22T10:19:44;11.70;;;9.00;;
14019;SDS011;7085;51.428;6.796;2023-02-22T10:22:20;12.30;;;8.40;;
14019;SDS011;7085;51.428;6.796;2023-02-22T10:24:53;10.45;;;7.97;;
14019;SDS011;7085;51.428;6.796;2023-02-22T10:27:24;9.48;;;7.60;;
14019;SDS011;7085;51.428;6.796;2023-02-22T10:29:54;8.73;;;7.18;;
14019;SDS011;7085;51.428;6.796;2023-02-22T10:32:25;9.00;;;6.82;;
14019;SDS011;7085;51.428;6.796;2023-02-22T10:34:56;12.95;;;7.18;;
14019;SDS011;7085;51.428;6.796;2023-02-22T10:37:24;8.20;;;6.20;;
14019;SDS011;7085;51.428;6.796;2023-02-22T10:39:54;10.25;;;6.68;;
14019;SDS011;7085;51.428;6.796;2023-02-22T10:42:21;7.15;;;5.55;;
14019;SDS011;7085;51.428;6.796;2023-02-22T10:44:50;7.78;;;5.82;;
14019;SDS011;7085;51.428;6.796;2023-02-22T10:47:17;8.23;;;5.47;;
14019;SDS011;7085;51.428;6.796;2023-02-22T10:49:47;5.88;;;5.25;;
14019;SDS011;7085;51.428;6.796;2023-02-22T10:52:18;6.60;;;5.03;;
14019;SDS011;7085;51.428;6.796;2023-02-22T10:54:45;6.57;;;5.28;;
14019;SDS011;7085;51.428;6.796;2023-02-22T10:57:15;7.45;;;5.03;;
14019;SDS011;7085;51.428;6.796;2023-02-22T10:59:45;5.57;;;5.07;;
14019;SDS011;7085;51.428;6.796;2023-02-22T11:02:16;6.20;;;5.25;;
14019;SDS011;7085;51.428;6.796;2023-02-22T11:04:45;6.13;;;5.50;;
14019;SDS011;7085;51.428;6.796;2023-02-22T11:07:22;7.82;;;5.25;;
14019;SDS011;7085;51.428;6.796;2023-02-22T11:09:50;7.80;;;5.03;;
14019;SDS011;7085;51.428;6.796;2023-02-22T11:12:19;8.82;;;4.95;;
14019;SDS011;7085;51.428;6.796;2023-02-22T11:14:47;9.00;;;5.10;;
14019;SDS011;7085;51.428;6.796;2023-02-22T11:17:16;8.80;;;4.78;;
14019;SDS011;7085;51.428;6.796;2023-02-22T11:19:45;7.40;;;5.47;;
14019;SDS011;7085;51.428;6.796;2023-02-22T11:22:17;8.60;;;5.03;;
14019;SDS011;7085;51.428;6.796;2023-02-22T11:24:47;8.65;;;6.03;;
14019;SDS011;7085;51.428;6.796;2023-02-22T11:27:21;9.13;;;5.72;;
14019;SDS011;7085;51.428;6.796;2023-02-22T11:29:49;6.43;;;5.00;;
14019;SDS011;7085;51.428;6.796;2023-02-22T11:32:18;6.28;;;4.88;;
14019;SDS011;7085;51.428;6.796;2023-02-22T11:34:46;5.93;;;4.70;;
14019;SDS011;7085;51.428;6.796;2023-02-22T11:37:27;8.40;;;5.38;;
14019;SDS011;7085;51.428;6.796;2023-02-22T11:40:09;6.57;;;5.60;;
14019;SDS011;7085;51.428;6.796;2023-02-22T11:42:41;7.30;;;4.70;;
14019;SDS011;7085;51.428;6.796;2023-02-22T11:45:10;7.50;;;5.03;;
14019;SDS011;7085;51.428;6.796;2023-02-22T11:47:45;5.80;;;4.50;;
14019;SDS011;7085;51.428;6.796;2023-02-22T11:50:16;8.23;;;5.10;;
14019;SDS011;7085;51.428;6.796;2023-02-22T11:52:46;6.15;;;4.63;;
14019;SDS011;7085;51.428;6.796;2023-02-22T11:55:17;6.25;;;4.97;;
14019;SDS011;7085;51.428;6.796;2023-02-22T11:57:52;5.93;;;4.80;;
14019;SDS011;7085;51.428;6.796;2023-02-22T12:00:22;6.32;;;5.05;;
14019;SDS011;7085;51.428;6.796;2023-02-22T12:05:40;7.68;;;5.03;;
14019;SDS011;7085;51.428;6.796;2023-02-22T12:08:14;5.60;;;4.95;;
14019;SDS011;7085;51.428;6.796;2023-02-22T12:10:46;6.82;;;4.82;;
14019;SDS011;7085;51.428;6.796;2023-02-22T12:13:18;6.13;;;4.63;;
14019;SDS011;7085;51.428;6.796;2023-02-22T12:15:53;4.82;;;4.13;;
14019;SDS011;7085;51.428;6.796;2023-02-22T12:18:25;8.55;;;4.78;;
14019;SDS011;7085;51.428;6.796;2023-02-22T12:20:55;8.00;;;4.78;;
14019;SDS011;7085;51.428;6.796;2023-02-22T12:23:24;5.13;;;4.35;;
14019;SDS011;7085;51.428;6.796;2023-02-22T12:25:58;6.07;;;4.53;;
14019;SDS011;7085;51.428;6.796;2023-02-22T12:28:27;7.45;;;4.97;;
14019;SDS011;7085;51.428;6.796;2023-02-22T12:31:02;5.80;;;4.30;;
14019;SDS011;7085;51.428;6.796;2023-02-22T12:33:41;8.23;;;5.43;;
14019;SDS011;7085;51.428;6.796;2023-02-22T12:36:10;6.22;;;5.32;;
14019;SDS011;7085;51.428;6.796;2023-02-22T12:38:41;6.28;;;5.00;;
14019;SDS011;7085;51.428;6.796;2023-02-22T12:41:11;8.95;;;5.25;;
14019;SDS011;7085;51.428;6.796;2023-02-22T12:43:43;7.28;;;5.07;;
14019;SDS011;7085;51.428;6.796;2023-02-22T12:46:12;9.68;;;5.75;;
14019;SDS011;7085;51.428;6.796;2023-02-22T12:48:43;7.80;;;5.93;;
14019;SDS011;7085;51.428;6.796;2023-02-22T12:51:18;7.35;;;5.47;;
14019;SDS011;7085;51.428;6.796;2023-02-22T12:53:49;9.25;;;5.60;;
14019;SDS011;7085;51.428;6.796;2023-02-22T12:56:20;6.97;;;5.90;;
14019;SDS011;7085;51.428;6.796;2023-02-22T12:58:50;9.05;;;5.50;;
14019;SDS011;7085;51.428;6.796;2023-02-22T13:01:20;10.65;;;5.63;;
14019;SDS011;7085;51.428;6.796;2023-02-22T13:03:48;8.20;;;5.60;;
14019;SDS011;7085;51.428;6.796;2023-02-22T13:06:20;8.98;;;6.03;;
14019;SDS011;7085;51.428;6.796;2023-02-22T13:08:54;8.50;;;5.90;;
14019;SDS011;7085;51.428;6.796;2023-02-22T13:11:26;8.57;;;5.53;;
14019;SDS011;7085;51.428;6.796;2023-02-22T13:13:58;6.75;;;5.63;;
14019;SDS011;7085;51.428;6.796;2023-02-22T13:16:31;8.68;;;5.55;;
14019;SDS011;7085;51.428;6.796;2023-02-22T13:19:05;9.57;;;5.78;;
14019;SDS011;7085;51.428;6.796;2023-02-22T13:21:40;8.93;;;5.65;;
14019;SDS011;7085;51.428;6.796;2023-02-22T13:24:13;6.88;;;5.57;;
14019;SDS011;7085;51.428;6.796;2023-02-22T13:26:44;9.00;;;6.43;;
14019;SDS011;7085;51.428;6.796;2023-02-22T13:29:15;6.70;;;5.45;;
14019;SDS011;7085;51.428;6.796;2023-02-22T13:31:47;8.73;;;6.00;;
14019;SDS011;7085;51.428;6.796;2023-02-22T13:34:22;7.15;;;5.47;;
14019;SDS011;7085;51.428;6.796;2023-02-22T13:36:59;9.10;;;7.00;;
14019;SDS011;7085;51.428;6.796;2023-02-22T13:39:33;9.95;;;6.47;;
14019;SDS011;7085;51.428;6.796;2023-02-22T13:42:12;8.60;;;6.00;;
14019;SDS011;7085;51.428;6.796;2023-02-22T13:44:56;11.48;;;6.10;;
14019;SDS011;7085;51.428;6.796;2023-02-22T13:47:50;8.27;;;6.18;;
14019;SDS011;7085;51.428;6.796;2023-02-22T13:50:27;10.50;;;7.13;;
14019;SDS011;7085;51.428;6.796;2023-02-22T13:52:57;9.25;;;6.95;;
14019;SDS011;7085;51.428;6.796;2023-02-22T13:55:26;12.40;;;7.03;;
14019;SDS011;7085;51.428;6.796;2023-02-22T13:57:59;9.63;;;6.63;;
14019;SDS011;7085;51.428;6.796;2023-02-22T14:00:38;10.20;;;7.22;;
14019;SDS011;7085;51.428;6.796;2023-02-22T14:03:06;9.30;;;6.93;;
14019;SDS011;7085;51.428;6.796;2023-02-22T14:05:47;9.05;;;7.25;;
14019;SDS011;7085;51.428;6.796;2023-02-22T14:11:00;12.85;;;7.45;;
14019;SDS011;7085;51.428;6.796;2023-02-22T14:13:31;10.82;;;7.72;;
14019;SDS011;7085;51.428;6.796;2023-02-22T14:18:49;12.25;;;7.00;;
14019;SDS011;7085;51.428;6.796;2023-02-22T14:21:26;12.60;;;7.88;;
14019;SDS011;7085;51.428;6.796;2023-02-22T14:23:53;11.80;;;7.80;;
14019;SDS011;7085;51.428;6.796;2023-02-22T14:26:22;9.23;;;6.95;;
14019;SDS011;7085;51.428;6.796;2023-02-22T14:28:52;11.10;;;7.22;;
14019;SDS011;7085;51.428;6.796;2023-02-22T14:31:21;10.50;;;7.28;;
14019;SDS011;7085;51.428;6.796;2023-02-22T14:33:54;16.02;;;7.35;;
14019;SDS011;7085;51.428;6.796;2023-02-22T14:36:22;10.52;;;7.43;;
14019;SDS011;7085;51.428;6.796;2023-02-22T14:38:49;8.80;;;7.13;;
14019;SDS011;7085;51.428;6.796;2023-02-22T14:41:19;12.10;;;7.25;;
14019;SDS011;7085;51.428;6.796;2023-02-22T14:43:48;7.55;;;6.65;;
14019;SDS011;7085;51.428;6.796;2023-02-22T14:46:18;12.13;;;8.20;;
14019;SDS011;7085;51.428;6.796;2023-02-22T14:48:48;10.52;;;7.22;;
14019;SDS011;7085;51.428;6.796;2023-02-22T14:51:18;8.05;;;6.25;;
14019;SDS011;7085;51.428;6.796;2023-02-22T14:53:46;8.88;;;6.50;;
14019;SDS011;7085;51.428;6.796;2023-02-22T14:56:16;10.40;;;7.20;;
14019;SDS011;7085;51.428;6.796;2023-02-22T14:58:47;8.82;;;6.70;;
14019;SDS011;7085;51.428;6.796;2023-02-22T15:01:16;10.05;;;7.50;;
14019;SDS011;7085;51.428;6.796;2023-02-22T15:03:48;9.38;;;7.00;;
14019;SDS011;7085;51.428;6.796;2023-02-22T15:06:23;10.15;;;7.32;;
14019;SDS011;7085;51.428;6.796;2023-02-22T15:09:03;8.80;;;6.90;;
14019;SDS011;7085;51.428;6.796;2023-02-22T15:11:30;11.52;;;7.50;;
14019;SDS011;7085;51.428;6.796;2023-02-22T15:13:58;8.63;;;6.80;;
14019;SDS011;7085;51.428;6.796;2023-02-22T15:16:26;11.73;;;6.97;;
14019;SDS011;7085;51.428;6.796;2023-02-22T15:18:57;10.98;;;7.50;;
14019;SDS011;7085;51.428;6.796;2023-02-22T15:21:25;11.75;;;7.60;;
14019;SDS011;7085;51.428;6.796;2023-02-22T15:23:54;11.48;;;7.57;;
14019;SDS011;7085;51.428;6.796;2023-02-22T15:26:23;11.40;;;7.60;;
14019;SDS011;7085;51.428;6.796;2023-02-22T15:28:54;10.88;;;6.38;;
14019;SDS011;7085;51.428;6.796;2023-02-22T15:31:22;12.63;;;7.43;;
14019;SDS011;7085;51.428;6.796;2023-02-22T15:33:50;12.02;;;7.25;;
14019;SDS011;7085;51.428;6.796;2023-02-22T15:36:20;11.80;;;8.82;;
14019;SDS011;7085;51.428;6.796;2023-02-22T15:38:48;13.75;;;8.45;;
14019;SDS011;7085;51.428;6.796;2023-02-22T15:41:19;11.02;;;8.75;;
14019;SDS011;7085;51.428;6.796;2023-02-22T15:44:02;9.10;;;8.07;;
14019;SDS011;7085;51.428;6.796;2023-02-22T15:46:29;11.02;;;8.95;;
14019;SDS011;7085;51.428;6.796;2023-02-22T15:49:06;12.98;;;9.10;;
14019;SDS011;7085;51.428;6.796;2023-02-22T15:51:35;9.60;;;8.45;;
14019;SDS011;7085;51.428;6.796;2023-02-22T15:54:04;12.85;;;9.05;;
14019;SDS011;7085;51.428;6.796;2023-02-22T15:56:33;12.55;;;7.88;;
14019;SDS011;7085;51.428;6.796;2023-02-22T15:59:02;11.50;;;9.18;;
14019;SDS011;7085;51.428;6.796;2023-02-22T16:01:29;10.95;;;8.23;;
14019;SDS011;7085;51.428;6.796;2023-02-22T16:04:02;11.15;;;9.23;;
14019;SDS011;7085;51.428;6.796;2023-02-22T16:06:30;10.55;;;9.20;;
14019;SDS011;7085;51.428;6.796;2023-02-22T16:09:00;11.80;;;8.88;;
14019;SDS011;7085;51.428;6.796;2023-02-22T16:11:33;13.65;;;8.82;;
14019;SDS011;7085;51.428;6.796;2023-02-22T16:14:06;12.65;;;9.75;;
14019;SDS011;7085;51.428;6.796;2023-02-22T16:16:33;10.75;;;9.48;;
14019;SDS011;7085;51.428;6.796;2023-02-22T16:21:49;11.88;;;9.52;;
14019;SDS011;7085;51.428;6.796;2023-02-22T16:24:25;10.65;;;9.35;;
14019;SDS011;7085;51.428;6.796;2023-02-22T16:27:02;14.23;;;8.98;;
14019;SDS011;7085;51.428;6.796;2023-02-22T16:29:30;9.70;;;8.43;;
14019;SDS011;7085;51.428;6.796;2023-02-22T16:31:57;12.55;;;9.48;;
14019;SDS011;7085;51.428;6.796;2023-02-22T16:34:25;10.50;;;9.40;;
14019;SDS011;7085;51.428;6.796;2023-02-22T16:36:53;14.15;;;9.57;;
14019;SDS011;7085;51.428;6.796;2023-02-22T16:39:21;10.93;;;9.27;;
14019;SDS011;7085;51.428;6.796;2023-02-22T16:41:52;11.77;;;9.05;;
14019;SDS011;7085;51.428;6.796;2023-02-22T16:44:20;11.80;;;9.20;;
14019;SDS011;7085;51.428;6.796;2023-02-22T16:46:49;11.13;;;9.73;;
14019;SDS011;7085;51.428;6.796;2023-02-22T16:49:16;14.85;;;9.63;;
14019;SDS011;7085;51.428;6.796;2023-02-22T16:51:44;11.50;;;9.90;;
14019;SDS011;7085;51.428;6.796;2023-02-22T16:54:15;17.75;;;10.15;;
14019;SDS011;7085;51.428;6.796;2023-02-22T16:56:44;14.18;;;10.18;;
14019;SDS011;7085;51.428;6.796;2023-02-22T16:59:13;12.52;;;10.50;;
14019;SDS011;7085;51.428;6.796;2023-02-22T17:01:41;12.77;;;9.95;;
14019;SDS011;7085;51.428;6.796;2023-02-22T17:04:11;12.25;;;10.65;;
14019;SDS011;7085;51.428;6.796;2023-02-22T17:06:39;11.77;;;10.40;;
14019;SDS011;7085;51.428;6.796;2023-02-22T17:09:06;14.50;;;10.32;;
14019;SDS011;7085;51.428;6.796;2023-02-22T17:11:33;13.35;;;11.35;;
14019;SDS011;7085;51.428;6.796;2023-02-22T17:14:01;13.30;;;11.23;;
14019;SDS011;7085;51.428;6.796;2023-02-22T17:16:29;12.48;;;10.60;;
14019;SDS011;7085;51.428;6.796;2023-02-22T17:18:56;13.73;;;11.75;;
14019;SDS011;7085;51.428;6.796;2023-02-22T17:21:23;15.55;;;11.07;;
14019;SDS011;7085;51.428;6.796;2023-02-22T17:23:50;12.77;;;11.40;;
14019;SDS011;7085;51.428;6.796;2023-02-22T17:26:17;14.85;;;11.55;;
14019;SDS011;7085;51.428;6.796;2023-02-22T17:28:45;16.63;;;11.55;;
14019;SDS011;7085;51.428;6.796;2023-02-22T17:31:15;13.40;;;11.18;;
14019;SDS011;7085;51.428;6.796;2023-02-22T17:33:46;13.90;;;11.10;;
14019;SDS011;7085;51.428;6.796;2023-02-22T17:36:13;13.82;;;12.02;;
14019;SDS011;7085;51.428;6.796;2023-02-22T17:38:40;16.00;;;12.18;;
14019;SDS011;7085;51.428;6.796;2023-02-22T17:41:07;15.30;;;12.70;;
14019;SDS011;7085;51.428;6.796;2023-02-22T17:43:34;14.80;;;13.05;;
14019;SDS011;7085;51.428;6.796;2023-02-22T17:46:04;17.70;;;14.45;;
14019;SDS011;7085;51.428;6.796;2023-02-22T17:48:32;15.15;;;13.20;;
14019;SDS011;7085;51.428;6.796;2023-02-22T17:51:02;14.10;;;12.45;;
14019;SDS011;7085;51.428;6.796;2023-02-22T17:53:29;15.25;;;13.70;;
14019;SDS011;7085;51.428;6.796;2023-02-22T17:55:56;18.30;;;13.70;;
14019;SDS011;7085;51.428;6.796;2023-02-22T17:58:24;15.73;;;13.02;;
14019;SDS011;7085;51.428;6.796;2023-02-22T18:00:54;17.35;;;13.75;;
14019;SDS011;7085;51.428;6.796;2023-02-22T18:03:23;16.88;;;13.63;;
14019;SDS011;7085;51.428;6.796;2023-02-22T18:05:51;16.13;;;13.80;;
14019;SDS011;7085;51.428;6.796;2023-02-22T18:08:20;17.70;;;14.38;;
14019;SDS011;7085;51.428;6.796;2023-02-22T18:10:48;16.15;;;14.43;;
14019;SDS011;7085;51.428;6.796;2023-02-22T18:13:16;19.13;;;15.57;;
14019;SDS011;7085;51.428;6.796;2023-02-22T18:15:45;22.80;;;16.08;;
14019;SDS011;7085;51.428;6.796;2023-02-22T18:18:14;17.38;;;15.45;;
14019;SDS011;7085;51.428;6.796;2023-02-22T18:20:42;18.58;;;15.32;;
14019;SDS011;7085;51.428;6.796;2023-02-22T18:23:10;17.40;;;15.45;;
14019;SDS011;7085;51.428;6.796;2023-02-22T18:25:39;19.67;;;16.05;;
14019;SDS011;7085;51.428;6.796;2023-02-22T18:28:13;20.48;;;16.40;;
14019;SDS011;7085;51.428;6.796;2023-02-22T18:30:40;17.50;;;15.70;;
14019;SDS011;7085;51.428;6.796;2023-02-22T18:33:07;17.42;;;15.60;;
14019;SDS011;7085;51.428;6.796;2023-02-22T18:35:36;21.27;;;16.80;;
14019;SDS011;7085;51.428;6.796;2023-02-22T18:38:03;21.48;;;17.33;;
14019;SDS011;7085;51.428;6.796;2023-02-22T18:40:30;21.02;;;18.25;;
14019;SDS011;7085;51.428;6.796;2023-02-22T18:42:59;23.27;;;18.10;;
14019;SDS011;7085;51.428;6.796;2023-02-22T18:45:26;20.58;;;17.17;;
14019;SDS011;7085;51.428;6.796;2023-02-22T18:47:53;20.52;;;15.55;;
14019;SDS011;7085;51.428;6.796;2023-02-22T18:50:20;23.90;;;18.30;;
14019;SDS011;7085;51.428;6.796;2023-02-22T18:52:47;21.20;;;16.15;;
14019;SDS011;7085;51.428;6.796;2023-02-22T18:55:14;21.45;;;17.60;;
14019;SDS011;7085;51.428;6.796;2023-02-22T18:57:42;21.52;;;18.35;;
14019;SDS011;7085;51.428;6.796;2023-02-22T19:00:11;22.55;;;17.55;;
14019;SDS011;7085;51.428;6.796;2023-02-22T19:02:39;19.25;;;17.20;;
14019;SDS011;7085;51.428;6.796;2023-02-22T19:05:07;20.85;;;17.33;;
14019;SDS011;7085;51.428;6.796;2023-02-22T19:07:34;21.55;;;17.60;;
14019;SDS011;7085;51.428;6.796;2023-02-22T19:10:02;23.70;;;17.85;;
14019;SDS011;7085;51.428;6.796;2023-02-22T19:12:29;20.75;;;17.95;;
14019;SDS011;7085;51.428;6.796;2023-02-22T19:14:57;19.65;;;17.42;;
14019;SDS011;7085;51.428;6.796;2023-02-22T19:17:26;20.02;;;17.60;;
14019;SDS011;7085;51.428;6.796;2023-02-22T19:19:53;19.77;;;16.83;;
14019;SDS011;7085;51.428;6.796;2023-02-22T19:22:21;22.42;;;18.30;;
14019;SDS011;7085;51.428;6.796;2023-02-22T19:24:50;18.90;;;16.90;;
14019;SDS011;7085;51.428;6.796;2023-02-22T19:27:18;20.65;;;17.92;;
14019;SDS011;7085;51.428;6.796;2023-02-22T19:29:45;21.77;;;18.08;;
14019;SDS011;7085;51.428;6.796;2023-02-22T19:32:12;22.13;;;18.63;;
14019;SDS011;7085;51.428;6.796;2023-02-22T19:34:42;23.42;;;18.45;;
14019;SDS011;7085;51.428;6.796;2023-02-22T19:37:09;21.73;;;19.02;;
14019;SDS011;7085;51.428;6.796;2023-02-22T19:39:39;20.60;;;18.42;;
14019;SDS011;7085;51.428;6.796;2023-02-22T19:42:06;20.33;;;18.13;;
14019;SDS011;7085;51.428;6.796;2023-02-22T19:44:34;21.88;;;17.67;;
14019;SDS011;7085;51.428;6.796;2023-02-22T19:47:01;21.63;;;19.25;;
14019;SDS011;7085;51.428;6.796;2023-02-22T19:49:33;19.13;;;16.60;;
14019;SDS011;7085;51.428;6.796;2023-02-22T19:52:02;23.75;;;18.38;;
14019;SDS011;7085;51.428;6.796;2023-02-22T19:54:30;23.42;;;18.50;;
14019;SDS011;7085;51.428;6.796;2023-02-22T19:56:57;23.83;;;18.27;;
14019;SDS011;7085;51.428;6.796;2023-02-22T19:59:24;21.55;;;19.13;;
14019;SDS011;7085;51.428;6.796;2023-02-22T20:01:52;20.00;;;17.77;;
14019;SDS011;7085;51.428;6.796;2023-02-22T20:04:19;23.35;;;19.15;;
14019;SDS011;7085;51.428;6.796;2023-02-22T20:06:48;22.33;;;19.45;;
14019;SDS011;7085;51.428;6.796;2023-02-22T20:09:20;20.95;;;18.40;;
14019;SDS011;7085;51.428;6.796;2023-02-22T20:11:48;20.08;;;17.50;;
14019;SDS011;7085;51.428;6.796;2023-02-22T20:14:17;22.23;;;18.48;;
14019;SDS011;7085;51.428;6.796;2023-02-22T20:16:44;25.33;;;18.80;;
14019;SDS011;7085;51.428;6.796;2023-02-22T20:19:11;22.17;;;19.05;;
14019;SDS011;7085;51.428;6.796;2023-02-22T20:21:38;26.17;;;20.05;;
14019;SDS011;7085;51.428;6.796;2023-02-22T20:24:07;23.55;;;20.30;;
14019;SDS011;7085;51.428;6.796;2023-02-22T20:26:37;24.95;;;19.05;;
14019;SDS011;7085;51.428;6.796;2023-02-22T20:29:05;22.00;;;19.80;;
14019;SDS011;7085;51.428;6.796;2023-02-22T20:31:33;23.17;;;19.00;;
14019;SDS011;7085;51.428;6.796;2023-02-22T20:34:01;21.38;;;19.00;;
14019;SDS011;7085;51.428;6.796;2023-02-22T20:36:30;23.77;;;18.50;;
14019;SDS011;7085;51.428;6.796;2023-02-22T20:38:59;23.60;;;19.85;;
14019;SDS011;7085;51.428;6.796;2023-02-22T20:41:26;22.52;;;19.83;;
14019;SDS011;7085;51.428;6.796;2023-02-22T20:43:55;25.08;;;20.05;;
14019;SDS011;7085;51.428;6.796;2023-02-22T20:46:23;24.70;;;19.27;;
14019;SDS011;7085;51.428;6.796;2023-02-22T20:48:52;24.05;;;19.85;;
14019;SDS011;7085;51.428;6.796;2023-02-22T20:51:20;27.10;;;21.45;;
14019;SDS011;7085;51.428;6.796;2023-02-22T20:53:47;24.30;;;20.50;;
14019;SDS011;7085;51.428;6.796;2023-02-22T20:56:15;25.02;;;21.33;;
14019;SDS011;7085;51.428;6.796;2023-02-22T20:58:42;22.92;;;20.45;;
14019;SDS011;7085;51.428;6.796;2023-02-22T21:01:12;23.35;;;20.90;;
14019;SDS011;7085;51.428;6.796;2023-02-22T21:03:40;23.45;;;20.55;;
14019;SDS011;7085;51.428;6.796;2023-02-22T21:06:08;26.88;;;21.85;;
14019;SDS011;7085;51.428;6.796;2023-02-22T21:08:39;28.15;;;22.10;;
14019;SDS011;7085;51.428;6.796;2023-02-22T21:11:08;23.05;;;20.40;;